sensor_id;sensor_type;location;lat;lon;timestamp;P1;durP1;ratioP1;P2;durP2;ratioP2
10114;SDS011;5097;43.260;27.812;2022-08-11T00:01:45;2.63;;;2.03;;
10114;SDS011;5097;43.260;27.812;2022-08-11T00:04:33;1.90;;;1.80;;
10114;SDS011;5097;43.260;27.812;2022-08-11T00:07:20;2.77;;;1.83;;
10114;SDS011;5097;43.260;27.812;2022-08-11T00:10:07;2.07;;;1.97;;
10114;SDS011;5097;43.260;27.812;2022-08-11T00:12:54;3.00;;;2.20;;
10114;SDS011;5097;43.260;27.812;2022-08-11T00:15:41;1.63;;;1.53;;
10114;SDS011;5097;43.260;27.812;2022-08-11T00:18:37;2.03;;;1.93;;
10114;SDS011;5097;43.260;27.812;2022-08-11T00:21:24;1.77;;;1.63;;
10114;SDS011;5097;43.260;27.812;2022-08-11T00:24:31;1.97;;;1.80;;
10114;SDS011;5097;43.260;27.812;2022-08-11T00:27:38;2.90;;;1.90;;
10114;SDS011;5097;43.260;27.812;2022-08-11T00:30:23;2.00;;;1.90;;
10114;SDS011;5097;43.260;27.812;2022-08-11T00:33:07;2.03;;;1.93;;
10114;SDS011;5097;43.260;27.812;2022-08-11T00:35:51;2.80;;;2.10;;
10114;SDS011;5097;43.260;27.812;2022-08-11T00:38:42;3.57;;;2.57;;
10114;SDS011;5097;43.260;27.812;2022-08-11T00:41:30;3.90;;;2.80;;
10114;SDS011;5097;43.260;27.812;2022-08-11T00:47:41;3.07;;;2.87;;
10114;SDS011;5097;43.260;27.812;2022-08-11T00:50:44;3.50;;;3.20;;
10114;SDS011;5097;43.260;27.812;2022-08-11T00:53:43;3.83;;;2.97;;
10114;SDS011;5097;43.260;27.812;2022-08-11T00:56:45;3.57;;;3.30;;
10114;SDS011;5097;43.260;27.812;2022-08-11T01:00:18;3.97;;;2.73;;
10114;SDS011;5097;43.260;27.812;2022-08-11T01:03:17;3.07;;;2.87;;
10114;SDS011;5097;43.260;27.812;2022-08-11T01:06:20;3.17;;;2.90;;
10114;SDS011;5097;43.260;27.812;2022-08-11T01:09:27;3.93;;;3.03;;
10114;SDS011;5097;43.260;27.812;2022-08-11T01:12:21;4.13;;;3.13;;
10114;SDS011;5097;43.260;27.812;2022-08-11T01:18:59;3.03;;;2.83;;
10114;SDS011;5097;43.260;27.812;2022-08-11T01:22:22;3.23;;;2.93;;
10114;SDS011;5097;43.260;27.812;2022-08-11T01:25:40;3.60;;;3.30;;
10114;SDS011;5097;43.260;27.812;2022-08-11T01:28:55;3.50;;;3.20;;
10114;SDS011;5097;43.260;27.812;2022-08-11T01:35:50;3.10;;;2.90;;
10114;SDS011;5097;43.260;27.812;2022-08-11T01:46:20;3.83;;;3.53;;
10114;SDS011;5097;43.260;27.812;2022-08-11T01:49:11;6.40;;;4.33;;
10114;SDS011;5097;43.260;27.812;2022-08-11T01:52:27;5.50;;;4.40;;
10114;SDS011;5097;43.260;27.812;2022-08-11T01:55:18;5.50;;;3.93;;
10114;SDS011;5097;43.260;27.812;2022-08-11T01:58:12;4.27;;;3.97;;
10114;SDS011;5097;43.260;27.812;2022-08-11T02:01:32;5.17;;;4.67;;
10114;SDS011;5097;43.260;27.812;2022-08-11T02:04:29;5.23;;;4.73;;
10114;SDS011;5097;43.260;27.812;2022-08-11T02:07:18;5.77;;;4.57;;
10114;SDS011;5097;43.260;27.812;2022-08-11T02:10:16;4.93;;;4.53;;
10114;SDS011;5097;43.260;27.812;2022-08-11T02:13:52;4.40;;;3.97;;
10114;SDS011;5097;43.260;27.812;2022-08-11T02:16:47;6.03;;;4.63;;
10114;SDS011;5097;43.260;27.812;2022-08-11T02:19:41;4.30;;;3.90;;
10114;SDS011;5097;43.260;27.812;2022-08-11T02:22:54;4.87;;;4.27;;
10114;SDS011;5097;43.260;27.812;2022-08-11T02:26:20;5.40;;;4.37;;
10114;SDS011;5097;43.260;27.812;2022-08-11T02:29:11;5.97;;;4.33;;
10114;SDS011;5097;43.260;27.812;2022-08-11T02:32:03;4.13;;;3.80;;
10114;SDS011;5097;43.260;27.812;2022-08-11T02:35:13;3.57;;;3.27;;
10114;SDS011;5097;43.260;27.812;2022-08-11T02:38:10;4.20;;;3.80;;
10114;SDS011;5097;43.260;27.812;2022-08-11T02:41:00;3.33;;;3.03;;
10114;SDS011;5097;43.260;27.812;2022-08-11T02:44:20;5.73;;;3.60;;
10114;SDS011;5097;43.260;27.812;2022-08-11T02:47:12;4.67;;;3.50;;
10114;SDS011;5097;43.260;27.812;2022-08-11T02:50:11;3.40;;;3.10;;
10114;SDS011;5097;43.260;27.812;2022-08-11T02:53:05;3.77;;;3.40;;
10114;SDS011;5097;43.260;27.812;2022-08-11T02:55:59;7.50;;;3.80;;
10114;SDS011;5097;43.260;27.812;2022-08-11T02:58:53;3.43;;;2.83;;
10114;SDS011;5097;43.260;27.812;2022-08-11T03:02:03;3.13;;;2.87;;
10114;SDS011;5097;43.260;27.812;2022-08-11T03:05:02;3.53;;;3.17;;
10114;SDS011;5097;43.260;27.812;2022-08-11T03:07:57;3.07;;;2.87;;
10114;SDS011;5097;43.260;27.812;2022-08-11T03:10:53;3.63;;;3.33;;
10114;SDS011;5097;43.260;27.812;2022-08-11T03:14:06;3.40;;;3.10;;
10114;SDS011;5097;43.260;27.812;2022-08-11T03:17:23;4.37;;;3.80;;
10114;SDS011;5097;43.260;27.812;2022-08-11T03:20:15;3.43;;;3.10;;
10114;SDS011;5097;43.260;27.812;2022-08-11T03:23:22;4.13;;;3.73;;
10114;SDS011;5097;43.260;27.812;2022-08-11T03:26:14;3.53;;;3.10;;
10114;SDS011;5097;43.260;27.812;2022-08-11T03:29:07;4.53;;;3.97;;
10114;SDS011;5097;43.260;27.812;2022-08-11T03:32:04;3.10;;;2.90;;
10114;SDS011;5097;43.260;27.812;2022-08-11T03:34:55;3.40;;;3.10;;
10114;SDS011;5097;43.260;27.812;2022-08-11T03:37:45;3.53;;;3.23;;
10114;SDS011;5097;43.260;27.812;2022-08-11T03:40:42;4.20;;;3.10;;
10114;SDS011;5097;43.260;27.812;2022-08-11T03:44:21;3.90;;;3.50;;
10114;SDS011;5097;43.260;27.812;2022-08-11T03:47:27;3.77;;;3.40;;
10114;SDS011;5097;43.260;27.812;2022-08-11T03:50:45;3.50;;;3.27;;
10114;SDS011;5097;43.260;27.812;2022-08-11T03:53:41;3.37;;;3.07;;
10114;SDS011;5097;43.260;27.812;2022-08-11T03:56:45;5.47;;;3.97;;
10114;SDS011;5097;43.260;27.812;2022-08-11T04:06:59;4.77;;;3.87;;
10114;SDS011;5097;43.260;27.812;2022-08-11T04:13:39;5.10;;;4.30;;
10114;SDS011;5097;43.260;27.812;2022-08-11T04:17:14;4.50;;;4.17;;
10114;SDS011;5097;43.260;27.812;2022-08-11T04:20:17;7.13;;;4.57;;
10114;SDS011;5097;43.260;27.812;2022-08-11T04:27:00;4.40;;;4.00;;
10114;SDS011;5097;43.260;27.812;2022-08-11T04:29:56;3.50;;;3.20;;
10114;SDS011;5097;43.260;27.812;2022-08-11T04:33:09;3.70;;;3.40;;
10114;SDS011;5097;43.260;27.812;2022-08-11T04:36:27;9.17;;;4.00;;
10114;SDS011;5097;43.260;27.812;2022-08-11T04:39:58;4.47;;;3.87;;
10114;SDS011;5097;43.260;27.812;2022-08-11T04:47:01;3.93;;;3.50;;
10114;SDS011;5097;43.260;27.812;2022-08-11T04:50:40;3.97;;;3.53;;
10114;SDS011;5097;43.260;27.812;2022-08-11T04:53:59;3.80;;;3.30;;
10114;SDS011;5097;43.260;27.812;2022-08-11T04:57:19;3.70;;;3.40;;
10114;SDS011;5097;43.260;27.812;2022-08-11T05:00:36;4.93;;;3.27;;
10114;SDS011;5097;43.260;27.812;2022-08-11T05:04:03;3.23;;;2.77;;
10114;SDS011;5097;43.260;27.812;2022-08-11T05:07:20;4.90;;;3.13;;
10114;SDS011;5097;43.260;27.812;2022-08-11T05:10:40;4.23;;;3.43;;
10114;SDS011;5097;43.260;27.812;2022-08-11T05:13:35;3.33;;;3.03;;
10114;SDS011;5097;43.260;27.812;2022-08-11T05:16:45;3.30;;;3.00;;
10114;SDS011;5097;43.260;27.812;2022-08-11T05:19:50;5.33;;;3.20;;
10114;SDS011;5097;43.260;27.812;2022-08-11T05:22:52;4.17;;;3.77;;
10114;SDS011;5097;43.260;27.812;2022-08-11T05:25:54;3.63;;;3.30;;
10114;SDS011;5097;43.260;27.812;2022-08-11T05:29:35;3.20;;;2.90;;
10114;SDS011;5097;43.260;27.812;2022-08-11T05:32:39;5.73;;;2.80;;
10114;SDS011;5097;43.260;27.812;2022-08-11T05:35:45;2.87;;;2.50;;
10114;SDS011;5097;43.260;27.812;2022-08-11T05:38:48;2.90;;;2.70;;
10114;SDS011;5097;43.260;27.812;2022-08-11T05:41:59;2.60;;;2.40;;
10114;SDS011;5097;43.260;27.812;2022-08-11T05:45:14;3.17;;;2.97;;
10114;SDS011;5097;43.260;27.812;2022-08-11T05:48:37;3.47;;;2.53;;
10114;SDS011;5097;43.260;27.812;2022-08-11T05:51:41;2.50;;;2.35;;
10114;SDS011;5097;43.260;27.812;2022-08-11T05:54:54;2.85;;;2.63;;
10114;SDS011;5097;43.260;27.812;2022-08-11T05:58:02;6.32;;;2.70;;
10114;SDS011;5097;43.260;27.812;2022-08-11T06:00:49;3.13;;;2.83;;
10114;SDS011;5097;43.260;27.812;2022-08-11T06:03:35;2.72;;;2.53;;
10114;SDS011;5097;43.260;27.812;2022-08-11T06:06:45;2.15;;;2.05;;
10114;SDS011;5097;43.260;27.812;2022-08-11T06:09:33;2.85;;;2.58;;
10114;SDS011;5097;43.260;27.812;2022-08-11T06:12:19;3.85;;;2.67;;
10114;SDS011;5097;43.260;27.812;2022-08-11T06:15:06;1.95;;;1.85;;
10114;SDS011;5097;43.260;27.812;2022-08-11T06:17:55;4.20;;;2.30;;
10114;SDS011;5097;43.260;27.812;2022-08-11T06:20:45;2.97;;;2.40;;
10114;SDS011;5097;43.260;27.812;2022-08-11T06:23:31;2.95;;;2.63;;
10114;SDS011;5097;43.260;27.812;2022-08-11T06:26:17;3.42;;;2.47;;
10114;SDS011;5097;43.260;27.812;2022-08-11T06:29:03;3.13;;;2.40;;
10114;SDS011;5097;43.260;27.812;2022-08-11T06:31:50;2.40;;;2.20;;
10114;SDS011;5097;43.260;27.812;2022-08-11T06:34:39;3.35;;;1.77;;
10114;SDS011;5097;43.260;27.812;2022-08-11T06:37:52;2.35;;;2.15;;
10114;SDS011;5097;43.260;27.812;2022-08-11T06:40:48;2.35;;;1.88;;
10114;SDS011;5097;43.260;27.812;2022-08-11T06:43:50;2.55;;;2.10;;
10114;SDS011;5097;43.260;27.812;2022-08-11T06:46:38;2.03;;;1.92;;
10114;SDS011;5097;43.260;27.812;2022-08-11T06:49:25;2.28;;;2.05;;
10114;SDS011;5097;43.260;27.812;2022-08-11T06:52:35;2.80;;;1.90;;
10114;SDS011;5097;43.260;27.812;2022-08-11T06:55:21;3.50;;;2.30;;
10114;SDS011;5097;43.260;27.812;2022-08-11T06:58:39;2.20;;;1.98;;
10114;SDS011;5097;43.260;27.812;2022-08-11T07:01:43;1.75;;;1.65;;
10114;SDS011;5097;43.260;27.812;2022-08-11T07:04:39;1.67;;;1.58;;
10114;SDS011;5097;43.260;27.812;2022-08-11T07:12:05;2.08;;;1.88;;
10114;SDS011;5097;43.260;27.812;2022-08-11T07:15:23;2.10;;;2.00;;
10114;SDS011;5097;43.260;27.812;2022-08-11T07:18:43;2.83;;;2.63;;
10114;SDS011;5097;43.260;27.812;2022-08-11T07:21:47;1.88;;;1.77;;
10114;SDS011;5097;43.260;27.812;2022-08-11T07:24:52;1.92;;;1.75;;
10114;SDS011;5097;43.260;27.812;2022-08-11T07:28:00;4.25;;;1.92;;
10114;SDS011;5097;43.260;27.812;2022-08-11T07:31:07;3.28;;;2.08;;
10114;SDS011;5097;43.260;27.812;2022-08-11T07:33:58;1.90;;;1.80;;
10114;SDS011;5097;43.260;27.812;2022-08-11T07:37:02;6.63;;;2.53;;
10114;SDS011;5097;43.260;27.812;2022-08-11T07:39:51;2.55;;;2.00;;
10114;SDS011;5097;43.260;27.812;2022-08-11T07:42:36;3.35;;;1.95;;
10114;SDS011;5097;43.260;27.812;2022-08-11T07:45:27;1.90;;;1.80;;
10114;SDS011;5097;43.260;27.812;2022-08-11T07:48:28;1.85;;;1.75;;
10114;SDS011;5097;43.260;27.812;2022-08-11T07:51:30;2.50;;;2.20;;
10114;SDS011;5097;43.260;27.812;2022-08-11T07:54:32;3.55;;;2.10;;
10114;SDS011;5097;43.260;27.812;2022-08-11T07:57:17;2.08;;;1.98;;
10114;SDS011;5097;43.260;27.812;2022-08-11T08:00:41;3.20;;;1.73;;
10114;SDS011;5097;43.260;27.812;2022-08-11T08:03:51;1.85;;;1.75;;
10114;SDS011;5097;43.260;27.812;2022-08-11T08:06:53;2.38;;;2.08;;
10114;SDS011;5097;43.260;27.812;2022-08-11T08:09:55;1.70;;;1.60;;
10114;SDS011;5097;43.260;27.812;2022-08-11T08:12:58;4.35;;;1.85;;
10114;SDS011;5097;43.260;27.812;2022-08-11T08:16:02;3.00;;;1.98;;
10114;SDS011;5097;43.260;27.812;2022-08-11T08:19:03;1.58;;;1.58;;
10114;SDS011;5097;43.260;27.812;2022-08-11T08:21:48;5.78;;;1.92;;
10114;SDS011;5097;43.260;27.812;2022-08-11T08:24:32;2.97;;;2.03;;
10114;SDS011;5097;43.260;27.812;2022-08-11T08:27:17;1.55;;;1.48;;
10114;SDS011;5097;43.260;27.812;2022-08-11T08:30:04;1.35;;;1.25;;
10114;SDS011;5097;43.260;27.812;2022-08-11T08:33:07;2.05;;;1.95;;
10114;SDS011;5097;43.260;27.812;2022-08-11T08:35:54;4.20;;;1.52;;
10114;SDS011;5097;43.260;27.812;2022-08-11T08:38:54;2.55;;;1.40;;
10114;SDS011;5097;43.260;27.812;2022-08-11T08:41:38;3.45;;;2.03;;
10114;SDS011;5097;43.260;27.812;2022-08-11T08:44:24;2.53;;;1.67;;
10114;SDS011;5097;43.260;27.812;2022-08-11T08:47:21;1.60;;;1.50;;
10114;SDS011;5097;43.260;27.812;2022-08-11T08:50:26;2.35;;;1.27;;
10114;SDS011;5097;43.260;27.812;2022-08-11T08:53:28;1.10;;;1.10;;
10114;SDS011;5097;43.260;27.812;2022-08-11T08:56:16;1.65;;;1.55;;
10114;SDS011;5097;43.260;27.812;2022-08-11T08:59:04;2.38;;;1.70;;
10114;SDS011;5097;43.260;27.812;2022-08-11T09:01:50;2.25;;;1.63;;
10114;SDS011;5097;43.260;27.812;2022-08-11T09:04:40;4.57;;;2.30;;
10114;SDS011;5097;43.260;27.812;2022-08-11T09:07:29;1.60;;;1.50;;
10114;SDS011;5097;43.260;27.812;2022-08-11T09:10:21;1.70;;;1.60;;
10114;SDS011;5097;43.260;27.812;2022-08-11T09:13:05;1.50;;;1.40;;
10114;SDS011;5097;43.260;27.812;2022-08-11T09:15:50;2.13;;;1.90;;
10114;SDS011;5097;43.260;27.812;2022-08-11T09:18:37;2.15;;;1.77;;
10114;SDS011;5097;43.260;27.812;2022-08-11T09:21:25;2.28;;;2.08;;
10114;SDS011;5097;43.260;27.812;2022-08-11T09:24:31;1.80;;;1.70;;
10114;SDS011;5097;43.260;27.812;2022-08-11T09:27:34;1.90;;;1.65;;
10114;SDS011;5097;43.260;27.812;2022-08-11T09:30:31;3.05;;;1.67;;
10114;SDS011;5097;43.260;27.812;2022-08-11T09:33:15;2.03;;;1.92;;
10114;SDS011;5097;43.260;27.812;2022-08-11T09:35:59;2.33;;;1.80;;
10114;SDS011;5097;43.260;27.812;2022-08-11T09:39:05;1.95;;;1.85;;
10114;SDS011;5097;43.260;27.812;2022-08-11T09:42:09;2.00;;;1.83;;
10114;SDS011;5097;43.260;27.812;2022-08-11T09:44:57;1.98;;;1.88;;
10114;SDS011;5097;43.260;27.812;2022-08-11T09:47:44;1.90;;;1.80;;
10114;SDS011;5097;43.260;27.812;2022-08-11T09:50:28;2.72;;;2.53;;
10114;SDS011;5097;43.260;27.812;2022-08-11T09:53:15;2.47;;;2.28;;
10114;SDS011;5097;43.260;27.812;2022-08-11T09:56:21;2.13;;;1.75;;
10114;SDS011;5097;43.260;27.812;2022-08-11T09:59:25;2.10;;;1.52;;
10114;SDS011;5097;43.260;27.812;2022-08-11T10:02:09;2.78;;;1.55;;
10114;SDS011;5097;43.260;27.812;2022-08-11T10:04:54;2.13;;;1.98;;
10114;SDS011;5097;43.260;27.812;2022-08-11T10:08:00;2.13;;;1.92;;
10114;SDS011;5097;43.260;27.812;2022-08-11T10:10:44;1.60;;;1.50;;
10114;SDS011;5097;43.260;27.812;2022-08-11T10:13:30;2.40;;;1.90;;
10114;SDS011;5097;43.260;27.812;2022-08-11T10:16:57;2.85;;;2.15;;
10114;SDS011;5097;43.260;27.812;2022-08-11T10:19:44;2.97;;;1.80;;
10114;SDS011;5097;43.260;27.812;2022-08-11T10:22:46;2.00;;;1.80;;
10114;SDS011;5097;43.260;27.812;2022-08-11T10:25:47;1.92;;;1.83;;
10114;SDS011;5097;43.260;27.812;2022-08-11T10:29:04;1.75;;;1.65;;
10114;SDS011;5097;43.260;27.812;2022-08-11T10:32:20;2.30;;;2.20;;
10114;SDS011;5097;43.260;27.812;2022-08-11T10:35:40;3.03;;;1.77;;
10114;SDS011;5097;43.260;27.812;2022-08-11T10:38:26;2.03;;;1.85;;
10114;SDS011;5097;43.260;27.812;2022-08-11T10:41:12;2.55;;;1.92;;
10114;SDS011;5097;43.260;27.812;2022-08-11T10:44:14;1.92;;;1.70;;
10114;SDS011;5097;43.260;27.812;2022-08-11T10:46:59;1.65;;;1.55;;
10114;SDS011;5097;43.260;27.812;2022-08-11T10:50:06;2.67;;;1.65;;
10114;SDS011;5097;43.260;27.812;2022-08-11T10:53:09;3.63;;;1.60;;
10114;SDS011;5097;43.260;27.812;2022-08-11T10:56:12;1.83;;;1.73;;
10114;SDS011;5097;43.260;27.812;2022-08-11T10:59:15;3.45;;;2.03;;
10114;SDS011;5097;43.260;27.812;2022-08-11T11:01:59;2.45;;;2.25;;
10114;SDS011;5097;43.260;27.812;2022-08-11T11:07:56;2.15;;;2.05;;
10114;SDS011;5097;43.260;27.812;2022-08-11T11:10:45;1.92;;;1.75;;
10114;SDS011;5097;43.260;27.812;2022-08-11T11:13:30;3.50;;;1.40;;
10114;SDS011;5097;43.260;27.812;2022-08-11T11:16:38;2.20;;;2.10;;
10114;SDS011;5097;43.260;27.812;2022-08-11T11:19:56;1.65;;;1.55;;
10114;SDS011;5097;43.260;27.812;2022-08-11T11:22:42;2.17;;;1.70;;
10114;SDS011;5097;43.260;27.812;2022-08-11T11:25:45;2.60;;;2.00;;
10114;SDS011;5097;43.260;27.812;2022-08-11T11:32:16;2.55;;;2.10;;
10114;SDS011;5097;43.260;27.812;2022-08-11T11:35:15;1.88;;;1.60;;
10114;SDS011;5097;43.260;27.812;2022-08-11T11:38:19;1.92;;;1.63;;
10114;SDS011;5097;43.260;27.812;2022-08-11T11:41:03;1.52;;;1.42;;
10114;SDS011;5097;43.260;27.812;2022-08-11T11:44:05;2.13;;;1.92;;
10114;SDS011;5097;43.260;27.812;2022-08-11T11:46:50;1.70;;;1.60;;
10114;SDS011;5097;43.260;27.812;2022-08-11T11:49:37;3.65;;;2.40;;
10114;SDS011;5097;43.260;27.812;2022-08-11T11:52:25;1.67;;;1.50;;
10114;SDS011;5097;43.260;27.812;2022-08-11T11:55:11;2.08;;;1.88;;
10114;SDS011;5097;43.260;27.812;2022-08-11T11:57:55;5.55;;;2.17;;
10114;SDS011;5097;43.260;27.812;2022-08-11T12:01:00;2.67;;;1.90;;
10114;SDS011;5097;43.260;27.812;2022-08-11T12:04:02;1.80;;;1.70;;
10114;SDS011;5097;43.260;27.812;2022-08-11T12:06:48;3.28;;;1.70;;
10114;SDS011;5097;43.260;27.812;2022-08-11T12:09:33;2.80;;;2.10;;
10114;SDS011;5097;43.260;27.812;2022-08-11T12:12:19;1.73;;;1.63;;
10114;SDS011;5097;43.260;27.812;2022-08-11T12:15:21;1.67;;;1.58;;
10114;SDS011;5097;43.260;27.812;2022-08-11T12:18:26;3.20;;;1.85;;
10114;SDS011;5097;43.260;27.812;2022-08-11T12:21:12;2.15;;;2.05;;
10114;SDS011;5097;43.260;27.812;2022-08-11T12:23:59;2.25;;;1.90;;
10114;SDS011;5097;43.260;27.812;2022-08-11T12:27:39;1.92;;;1.63;;
10114;SDS011;5097;43.260;27.812;2022-08-11T12:30:23;3.92;;;2.08;;
10114;SDS011;5097;43.260;27.812;2022-08-11T12:33:08;1.67;;;1.58;;
10114;SDS011;5097;43.260;27.812;2022-08-11T12:35:52;2.83;;;2.60;;
10114;SDS011;5097;43.260;27.812;2022-08-11T12:38:43;1.83;;;1.70;;
10114;SDS011;5097;43.260;27.812;2022-08-11T12:41:33;2.00;;;1.90;;
10114;SDS011;5097;43.260;27.812;2022-08-11T12:44:37;2.10;;;2.00;;
10114;SDS011;5097;43.260;27.812;2022-08-11T12:47:38;4.13;;;2.10;;
10114;SDS011;5097;43.260;27.812;2022-08-11T12:51:00;2.33;;;1.63;;
10114;SDS011;5097;43.260;27.812;2022-08-11T12:54:05;1.65;;;1.55;;
10114;SDS011;5097;43.260;27.812;2022-08-11T12:56:57;2.38;;;2.20;;
10114;SDS011;5097;43.260;27.812;2022-08-11T13:00:20;2.45;;;2.30;;
10114;SDS011;5097;43.260;27.812;2022-08-11T13:03:23;2.53;;;2.03;;
10114;SDS011;5097;43.260;27.812;2022-08-11T13:06:33;2.55;;;2.22;;
10114;SDS011;5097;43.260;27.812;2022-08-11T13:09:20;2.15;;;1.90;;
10114;SDS011;5097;43.260;27.812;2022-08-11T13:12:05;2.28;;;2.13;;
10114;SDS011;5097;43.260;27.812;2022-08-11T13:15:06;3.10;;;1.90;;
10114;SDS011;5097;43.260;27.812;2022-08-11T13:17:54;2.03;;;1.70;;
10114;SDS011;5097;43.260;27.812;2022-08-11T13:20:38;2.67;;;1.95;;
10114;SDS011;5097;43.260;27.812;2022-08-11T13:23:25;2.28;;;2.17;;
10114;SDS011;5097;43.260;27.812;2022-08-11T13:26:11;2.40;;;2.17;;
10114;SDS011;5097;43.260;27.812;2022-08-11T13:28:55;2.08;;;1.98;;
10114;SDS011;5097;43.260;27.812;2022-08-11T13:31:39;1.92;;;1.83;;
10114;SDS011;5097;43.260;27.812;2022-08-11T13:34:26;1.88;;;1.77;;
10114;SDS011;5097;43.260;27.812;2022-08-11T13:37:13;3.50;;;2.38;;
10114;SDS011;5097;43.260;27.812;2022-08-11T13:39:58;2.17;;;2.00;;
10114;SDS011;5097;43.260;27.812;2022-08-11T13:42:44;1.77;;;1.50;;
10114;SDS011;5097;43.260;27.812;2022-08-11T13:45:29;1.90;;;1.80;;
10114;SDS011;5097;43.260;27.812;2022-08-11T13:48:14;1.98;;;1.85;;
10114;SDS011;5097;43.260;27.812;2022-08-11T13:51:00;1.90;;;1.80;;
10114;SDS011;5097;43.260;27.812;2022-08-11T13:54:02;2.15;;;2.05;;
10114;SDS011;5097;43.260;27.812;2022-08-11T13:56:49;2.22;;;2.10;;
10114;SDS011;5097;43.260;27.812;2022-08-11T13:59:35;1.67;;;1.58;;
10114;SDS011;5097;43.260;27.812;2022-08-11T14:02:33;2.55;;;2.33;;
10114;SDS011;5097;43.260;27.812;2022-08-11T14:05:19;2.45;;;2.28;;
10114;SDS011;5097;43.260;27.812;2022-08-11T14:08:11;2.17;;;2.05;;
10114;SDS011;5097;43.260;27.812;2022-08-11T14:11:19;2.33;;;2.00;;
10114;SDS011;5097;43.260;27.812;2022-08-11T14:14:41;10.55;;;2.20;;
10114;SDS011;5097;43.260;27.812;2022-08-11T14:17:29;3.42;;;1.92;;
10114;SDS011;5097;43.260;27.812;2022-08-11T14:20:30;2.05;;;1.95;;
10114;SDS011;5097;43.260;27.812;2022-08-11T14:23:33;2.42;;;1.90;;
10114;SDS011;5097;43.260;27.812;2022-08-11T14:26:20;2.15;;;1.95;;
10114;SDS011;5097;43.260;27.812;2022-08-11T14:29:09;3.35;;;1.88;;
10114;SDS011;5097;43.260;27.812;2022-08-11T14:31:56;2.45;;;1.85;;
10114;SDS011;5097;43.260;27.812;2022-08-11T14:34:43;1.90;;;1.80;;
10114;SDS011;5097;43.260;27.812;2022-08-11T14:37:27;2.30;;;1.90;;
10114;SDS011;5097;43.260;27.812;2022-08-11T14:40:13;2.63;;;2.03;;
10114;SDS011;5097;43.260;27.812;2022-08-11T14:43:14;2.65;;;2.45;;
10114;SDS011;5097;43.260;27.812;2022-08-11T14:46:35;3.58;;;2.28;;
10114;SDS011;5097;43.260;27.812;2022-08-11T14:49:40;1.98;;;1.88;;
10114;SDS011;5097;43.260;27.812;2022-08-11T14:52:47;1.85;;;1.70;;
10114;SDS011;5097;43.260;27.812;2022-08-11T14:55:36;5.32;;;2.50;;
10114;SDS011;5097;43.260;27.812;2022-08-11T14:58:39;2.00;;;1.90;;
10114;SDS011;5097;43.260;27.812;2022-08-11T15:01:25;2.85;;;2.38;;
10114;SDS011;5097;43.260;27.812;2022-08-11T15:04:26;2.33;;;2.05;;
10114;SDS011;5097;43.260;27.812;2022-08-11T15:07:17;2.25;;;2.05;;
10114;SDS011;5097;43.260;27.812;2022-08-11T15:10:11;1.70;;;1.60;;
10114;SDS011;5097;43.260;27.812;2022-08-11T15:12:56;1.65;;;1.55;;
10114;SDS011;5097;43.260;27.812;2022-08-11T15:15:41;2.10;;;2.00;;
10114;SDS011;5097;43.260;27.812;2022-08-11T15:18:44;2.20;;;2.08;;
10114;SDS011;5097;43.260;27.812;2022-08-11T15:21:28;1.73;;;1.63;;
10114;SDS011;5097;43.260;27.812;2022-08-11T15:24:30;2.17;;;2.08;;
10114;SDS011;5097;43.260;27.812;2022-08-11T15:27:18;3.47;;;2.00;;
10114;SDS011;5097;43.260;27.812;2022-08-11T15:30:22;1.98;;;1.80;;
10114;SDS011;5097;43.260;27.812;2022-08-11T15:33:26;5.32;;;3.42;;
10114;SDS011;5097;43.260;27.812;2022-08-11T15:36:29;2.30;;;2.08;;
10114;SDS011;5097;43.260;27.812;2022-08-11T15:39:34;1.40;;;1.40;;
10114;SDS011;5097;43.260;27.812;2022-08-11T15:42:46;3.03;;;2.63;;
10114;SDS011;5097;43.260;27.812;2022-08-11T15:45:55;3.10;;;2.40;;
10114;SDS011;5097;43.260;27.812;2022-08-11T15:48:44;3.45;;;2.53;;
10114;SDS011;5097;43.260;27.812;2022-08-11T15:51:33;3.33;;;3.00;;
10114;SDS011;5097;43.260;27.812;2022-08-11T15:54:19;2.15;;;2.05;;
10114;SDS011;5097;43.260;27.812;2022-08-11T15:57:07;3.85;;;1.95;;
10114;SDS011;5097;43.260;27.812;2022-08-11T16:00:21;4.47;;;2.13;;
10114;SDS011;5097;43.260;27.812;2022-08-11T16:03:24;2.22;;;2.00;;
10114;SDS011;5097;43.260;27.812;2022-08-11T16:06:50;2.13;;;1.92;;
10114;SDS011;5097;43.260;27.812;2022-08-11T16:09:39;2.00;;;1.90;;
10114;SDS011;5097;43.260;27.812;2022-08-11T16:12:34;1.98;;;1.88;;
10114;SDS011;5097;43.260;27.812;2022-08-11T16:15:22;2.15;;;1.70;;
10114;SDS011;5097;43.260;27.812;2022-08-11T16:18:26;2.47;;;2.20;;
10114;SDS011;5097;43.260;27.812;2022-08-11T16:21:22;4.70;;;1.80;;
10114;SDS011;5097;43.260;27.812;2022-08-11T16:24:18;1.75;;;1.65;;
10114;SDS011;5097;43.260;27.812;2022-08-11T16:27:23;5.50;;;2.00;;
10114;SDS011;5097;43.260;27.812;2022-08-11T16:30:08;2.13;;;2.00;;
10114;SDS011;5097;43.260;27.812;2022-08-11T16:32:53;2.00;;;1.90;;
10114;SDS011;5097;43.260;27.812;2022-08-11T16:35:40;1.90;;;1.80;;
10114;SDS011;5097;43.260;27.812;2022-08-11T16:38:44;2.17;;;2.03;;
10114;SDS011;5097;43.260;27.812;2022-08-11T16:41:30;2.05;;;1.85;;
10114;SDS011;5097;43.260;27.812;2022-08-11T16:44:33;2.15;;;2.05;;
10114;SDS011;5097;43.260;27.812;2022-08-11T16:47:35;2.47;;;2.28;;
10114;SDS011;5097;43.260;27.812;2022-08-11T16:50:41;2.78;;;1.80;;
10114;SDS011;5097;43.260;27.812;2022-08-11T16:53:27;2.60;;;2.40;;
10114;SDS011;5097;43.260;27.812;2022-08-11T16:56:34;2.70;;;2.50;;
10114;SDS011;5097;43.260;27.812;2022-08-11T16:59:25;2.22;;;2.10;;
10114;SDS011;5097;43.260;27.812;2022-08-11T17:02:14;3.22;;;2.92;;
10114;SDS011;5097;43.260;27.812;2022-08-11T17:05:22;2.75;;;2.50;;
10114;SDS011;5097;43.260;27.812;2022-08-11T17:08:38;4.07;;;2.40;;
10114;SDS011;5097;43.260;27.812;2022-08-11T17:11:48;2.60;;;2.40;;
10114;SDS011;5097;43.260;27.812;2022-08-11T17:14:54;2.60;;;2.38;;
10114;SDS011;5097;43.260;27.812;2022-08-11T17:17:40;2.25;;;2.05;;
10114;SDS011;5097;43.260;27.812;2022-08-11T17:20:25;4.72;;;2.85;;
10114;SDS011;5097;43.260;27.812;2022-08-11T17:23:24;3.50;;;2.40;;
10114;SDS011;5097;43.260;27.812;2022-08-11T17:26:29;2.30;;;2.13;;
10114;SDS011;5097;43.260;27.812;2022-08-11T17:29:31;3.03;;;2.03;;
10114;SDS011;5097;43.260;27.812;2022-08-11T17:32:36;2.58;;;2.33;;
10114;SDS011;5097;43.260;27.812;2022-08-11T17:35:42;2.50;;;2.30;;
10114;SDS011;5097;43.260;27.812;2022-08-11T17:38:26;2.03;;;1.77;;
10114;SDS011;5097;43.260;27.812;2022-08-11T17:41:12;3.15;;;2.10;;
10114;SDS011;5097;43.260;27.812;2022-08-11T17:44:24;3.10;;;2.33;;
10114;SDS011;5097;43.260;27.812;2022-08-11T17:47:27;2.45;;;2.05;;
10114;SDS011;5097;43.260;27.812;2022-08-11T17:50:30;6.65;;;2.70;;
10114;SDS011;5097;43.260;27.812;2022-08-11T17:53:16;2.42;;;2.22;;
10114;SDS011;5097;43.260;27.812;2022-08-11T17:56:20;4.65;;;2.45;;
10114;SDS011;5097;43.260;27.812;2022-08-11T17:59:22;4.55;;;2.30;;
10114;SDS011;5097;43.260;27.812;2022-08-11T18:02:32;2.53;;;2.25;;
10114;SDS011;5097;43.260;27.812;2022-08-11T18:05:36;2.30;;;2.20;;
10114;SDS011;5097;43.260;27.812;2022-08-11T18:08:25;2.30;;;2.20;;
10114;SDS011;5097;43.260;27.812;2022-08-11T18:11:29;2.13;;;2.03;;
10114;SDS011;5097;43.260;27.812;2022-08-11T18:14:53;3.05;;;2.17;;
10114;SDS011;5097;43.260;27.812;2022-08-11T18:17:58;3.92;;;2.38;;
10114;SDS011;5097;43.260;27.812;2022-08-11T18:21:00;2.55;;;2.35;;
10114;SDS011;5097;43.260;27.812;2022-08-11T18:24:03;2.30;;;2.20;;
10114;SDS011;5097;43.260;27.812;2022-08-11T18:27:09;2.08;;;1.98;;
10114;SDS011;5097;43.260;27.812;2022-08-11T18:30:15;2.38;;;2.08;;
10114;SDS011;5097;43.260;27.812;2022-08-11T18:33:17;6.78;;;2.10;;
10114;SDS011;5097;43.260;27.812;2022-08-11T18:36:43;2.05;;;1.90;;
10114;SDS011;5097;43.260;27.812;2022-08-11T18:40:01;5.25;;;2.60;;
10114;SDS011;5097;43.260;27.812;2022-08-11T18:43:06;2.30;;;2.10;;
10114;SDS011;5097;43.260;27.812;2022-08-11T18:46:12;2.40;;;2.20;;